Time;durP1;ratioP1;P1;durP2;ratioP2;P2;SDS_P1;SDS_P2;PMS_P1;PMS_P2;Temp;Humidity;BMP_temperature;BMP_pressure;BME280_temperature;BME280_humidity;BME280_pressure;Samples;Min_cycle;Max_cycle;Signal;HPM_P1;HPM_P2
2022/04/13 00:00:56;;;;;;;16.95;10.77;;;10.50;97.60;;;;;;5053560;28;20602;-49
2022/04/13 00:03:22;;;;;;;18.77;10.35;;;10.60;97.40;;;;;;5051576;28;20040;-48
2022/04/13 00:05:48;;;;;;;17.73;10.93;;;10.60;97.20;;;;;;5035149;28;20469;-45
2022/04/13 00:08:14;;;;;;;14.88;10.23;;;10.60;97.30;;;;;;5053077;28;20440;-47
2022/04/13 00:10:40;;;;;;;15.25;11.43;;;10.50;97.50;;;;;;5052931;28;20112;-48
2022/04/13 00:13:06;;;;;;;15.57;10.73;;;10.50;97.70;;;;;;5053279;28;20035;-50
2022/04/13 00:15:33;;;;;;;14.05;10.73;;;;;;;;;;5053105;28;20025;-50
2022/04/13 00:17:59;;;;;;;16.60;10.20;;;9.60;99.90;;;;;;5053514;28;20139;-53
2022/04/13 00:20:24;;;;;;;16.00;10.80;;;9.70;99.70;;;;;;5051505;28;20049;-52
2022/04/13 00:22:50;;;;;;;15.82;10.73;;;9.90;99.90;;;;;;5051453;28;20049;-51
2022/04/13 00:25:16;;;;;;;13.90;9.70;;;;;;;;;;5053250;28;20025;-48
2022/04/13 00:27:42;;;;;;;19.65;11.35;;;9.60;99.90;;;;;;5051183;28;20098;-48
2022/04/13 00:30:08;;;;;;;16.10;9.95;;;9.20;99.90;;;;;;5053171;28;20025;-53
2022/04/13 00:32:34;;;;;;;14.80;9.65;;;9.60;99.90;;;;;;5034810;28;20481;-51
2022/04/13 00:35:04;;;;;;;19.52;11.18;;;9.10;99.90;;;;;;5051199;28;20059;-50
2022/04/13 00:37:30;;;;;;;19.00;12.02;;;9.00;99.90;;;;;;5053432;28;20459;-48
2022/04/13 00:39:57;;;;;;;17.05;10.45;;;9.00;99.90;;;;;;5017769;28;20057;-49
2022/04/13 00:42:24;;;;;;;15.65;10.95;;;9.00;99.90;;;;;;5053059;28;20040;-49
2022/04/13 00:44:50;;;;;;;16.42;11.45;;;9.30;99.90;;;;;;5053001;28;20491;-47
2022/04/13 00:47:18;;;;;;;16.00;11.52;;;;;;;;;;5053079;28;20041;-46
2022/04/13 00:49:44;;;;;;;18.63;10.85;;;8.90;99.90;;;;;;5053143;28;20028;-52
2022/04/13 00:52:12;;;;;;;18.30;11.38;;;8.80;99.90;;;;;;5053137;28;20032;-48
2022/04/13 00:54:45;;;;;;;16.83;11.05;;;9.10;99.90;;;;;;5052978;28;20032;-50
2022/04/13 00:57:13;;;;;;;15.48;11.50;;;9.10;99.90;;;;;;5051359;28;20120;-53
2022/04/13 00:59:39;;;;;;;18.42;12.25;;;9.10;99.90;;;;;;5052916;28;20025;-47
2022/04/13 01:02:08;;;;;;;17.52;12.38;;;9.40;99.90;;;;;;5052792;28;20495;-49
2022/04/13 01:04:35;;;;;;;17.45;13.00;;;8.50;99.90;;;;;;5051647;28;20557;-46
2022/04/13 01:07:03;;;;;;;15.75;12.13;;;8.80;99.90;;;;;;5053121;28;20396;-49
2022/04/13 01:09:30;;;;;;;17.40;12.20;;;8.90;99.90;;;;;;5050985;28;20465;-49
2022/04/13 01:11:56;;;;;;;15.77;10.57;;;;;;;;;;5052736;28;20032;-50
2022/04/13 01:14:22;;;;;;;16.95;11.93;;;8.30;99.90;;;;;;5052959;28;20025;-47
2022/04/13 01:16:48;;;;;;;17.33;12.65;;;8.50;99.90;;;;;;5052654;28;20029;-48
2022/04/13 01:19:17;;;;;;;17.88;11.80;;;8.70;99.90;;;;;;5052765;28;20033;-53
2022/04/13 01:21:52;;;;;;;16.48;11.80;;;8.80;99.90;;;;;;5056343;28;20111;-50
2022/04/13 01:24:20;;;;;;;16.45;12.20;;;8.80;99.90;;;;;;5056679;28;20112;-54
2022/04/13 01:26:46;;;;;;;16.58;12.52;;;8.90;99.90;;;;;;5056702;28;20025;-48
2022/04/13 01:29:12;;;;;;;14.98;12.15;;;8.70;99.90;;;;;;5056294;28;20488;-50
2022/04/13 01:31:39;;;;;;;16.52;12.38;;;8.60;99.90;;;;;;5056587;28;20078;-52
2022/04/13 01:34:07;;;;;;;20.50;13.13;;;8.50;99.90;;;;;;5054364;28;20064;-46
2022/04/13 01:36:34;;;;;;;21.17;13.90;;;8.50;99.90;;;;;;5056350;28;20057;-47
2022/04/13 01:39:00;;;;;;;19.20;13.02;;;8.40;99.90;;;;;;5054661;28;20041;-50
2022/04/13 01:41:26;;;;;;;22.17;13.90;;;8.10;99.90;;;;;;5056557;28;20043;-48
2022/04/13 01:43:52;;;;;;;18.60;12.40;;;8.00;99.90;;;;;;5056427;28;20033;-52
2022/04/13 01:46:17;;;;;;;19.42;13.45;;;8.00;99.90;;;;;;5056377;28;20477;-47
2022/04/13 01:48:43;;;;;;;17.52;11.77;;;8.00;99.90;;;;;;5056259;28;20480;-47
2022/04/13 01:51:09;;;;;;;23.02;13.40;;;7.90;99.90;;;;;;5056195;28;20087;-49
2022/04/13 01:53:35;;;;;;;18.35;11.68;;;8.00;99.90;;;;;;5056063;28;20440;-48
2022/04/13 01:56:01;;;;;;;15.90;11.57;;;8.00;99.90;;;;;;5055977;28;20045;-51
2022/04/13 01:58:27;;;;;;;17.23;11.93;;;7.90;99.90;;;;;;5055915;28;20040;-48
2022/04/13 02:00:56;;;;;;;15.80;10.93;;;7.90;99.90;;;;;;5056023;28;20041;-47
2022/04/13 02:03:26;;;;;;;17.95;11.77;;;8.00;99.90;;;;;;5055848;28;20040;-50
2022/04/13 02:05:53;;;;;;;13.85;10.23;;;7.90;99.90;;;;;;5055865;28;20445;-49
2022/04/13 02:08:20;;;;;;;15.73;10.45;;;8.00;99.90;;;;;;5054015;28;20099;-50
2022/04/13 02:10:46;;;;;;;14.15;11.27;;;8.10;99.90;;;;;;5055875;28;20025;-53
2022/04/13 02:13:12;;;;;;;14.85;11.15;;;8.00;99.90;;;;;;5055696;28;20055;-50
2022/04/13 02:15:39;;;;;;;15.75;11.38;;;7.80;99.90;;;;;;5055664;28;20469;-49
2022/04/13 02:18:05;;;;;;;15.63;10.68;;;7.70;99.90;;;;;;5055459;28;20041;-45
2022/04/13 02:20:32;;;;;;;15.80;10.93;;;7.80;99.90;;;;;;5055531;28;20506;-47
2022/04/13 02:22:58;;;;;;;13.15;11.10;;;7.70;99.90;;;;;;5053956;28;20037;-48
2022/04/13 02:25:24;;;;;;;18.50;11.80;;;7.70;99.90;;;;;;5055488;28;20033;-51
2022/04/13 02:27:50;;;;;;;15.73;11.20;;;7.40;99.90;;;;;;5053795;28;20071;-49
2022/04/13 02:30:16;;;;;;;16.33;11.00;;;7.30;99.90;;;;;;5055429;28;20037;-52
2022/04/13 02:32:45;;;;;;;16.38;11.85;;;7.60;99.90;;;;;;5054764;28;20033;-52
2022/04/13 02:35:13;;;;;;;17.05;11.82;;;7.70;99.90;;;;;;5055099;28;20033;-51
2022/04/13 02:37:40;;;;;;;15.88;12.48;;;7.80;99.90;;;;;;5055195;28;20040;-44
2022/04/13 02:40:09;;;;;;;14.93;11.35;;;7.60;99.90;;;;;;5053668;28;20536;-49
2022/04/13 02:42:35;;;;;;;14.70;10.93;;;7.60;99.90;;;;;;5036512;28;20099;-48
2022/04/13 02:45:03;;;;;;;19.38;12.70;;;7.60;99.90;;;;;;5053931;28;20071;-46
2022/04/13 02:47:29;;;;;;;16.92;10.95;;;7.50;99.90;;;;;;5055144;28;20068;-48
2022/04/13 02:49:55;;;;;;;18.33;11.65;;;7.70;99.90;;;;;;5055067;28;20511;-48
2022/04/13 02:52:21;;;;;;;16.08;11.00;;;7.80;99.90;;;;;;5036972;28;20077;-47
2022/04/13 02:54:47;;;;;;;14.15;10.88;;;7.80;99.90;;;;;;5055062;28;20056;-51
2022/04/13 02:57:13;;;;;;;18.50;11.30;;;7.90;99.90;;;;;;5055497;28;20447;-47
2022/04/13 02:59:39;;;;;;;17.95;11.00;;;7.90;99.90;;;;;;5053536;28;20500;-50
2022/04/13 03:02:04;;;;;;;14.48;10.55;;;8.00;99.90;;;;;;5055183;28;20032;-50
2022/04/13 03:04:34;;;;;;;15.10;11.20;;;8.00;99.90;;;;;;5054654;28;20461;-58
2022/04/13 03:07:00;;;;;;;16.02;10.98;;;7.80;99.90;;;;;;5054939;28;20370;-51
2022/04/13 03:09:26;;;;;;;14.02;11.18;;;7.80;99.90;;;;;;5054583;28;20106;-48
2022/04/13 03:11:51;;;;;;;14.88;11.20;;;7.90;99.90;;;;;;5054654;28;20029;-47
2022/04/13 03:14:18;;;;;;;15.43;10.52;;;7.90;99.90;;;;;;5054573;28;20374;-50
2022/04/13 03:16:44;;;;;;;17.50;11.25;;;7.90;99.90;;;;;;5054740;28;20445;-49
2022/04/13 03:19:10;;;;;;;15.00;10.90;;;7.90;99.90;;;;;;5054516;28;20041;-48
2022/04/13 03:21:36;;;;;;;14.73;10.98;;;8.00;99.90;;;;;;5054413;28;20032;-46
2022/04/13 03:24:01;;;;;;;18.27;11.32;;;8.10;99.90;;;;;;5054482;28;20123;-51
2022/04/13 03:26:27;;;;;;;14.88;10.85;;;8.00;99.90;;;;;;5052526;28;20427;-50
2022/04/13 03:28:53;;;;;;;16.92;10.80;;;7.90;99.90;;;;;;5054571;28;20552;-52
2022/04/13 03:31:19;;;;;;;14.25;10.43;;;7.90;99.90;;;;;;5054311;28;20039;-50
2022/04/13 03:33:45;;;;;;;17.80;11.15;;;7.70;99.90;;;;;;5054467;28;20032;-47
2022/04/13 03:36:10;;;;;;;16.50;11.27;;;7.70;99.90;;;;;;5054056;28;20063;-46
2022/04/13 03:38:36;;;;;;;15.35;11.05;;;7.80;99.90;;;;;;5053953;28;20456;-50
2022/04/13 03:41:03;;;;;;;15.48;10.23;;;7.90;99.90;;;;;;5054224;28;20518;-47
2022/04/13 03:43:28;;;;;;;21.95;11.07;;;7.80;99.90;;;;;;5053145;28;20025;-49
2022/04/13 03:45:54;;;;;;;14.75;10.02;;;7.70;99.90;;;;;;5053992;28;20033;-50
2022/04/13 03:48:20;;;;;;;14.63;10.48;;;7.60;99.90;;;;;;5053869;28;20507;-48
2022/04/13 03:50:46;;;;;;;15.88;10.55;;;7.50;99.90;;;;;;5053817;28;20132;-50
2022/04/13 03:53:12;;;;;;;15.13;10.30;;;7.50;99.90;;;;;;5054033;28;20120;-48
2022/04/13 03:55:38;;;;;;;14.20;10.27;;;7.30;99.90;;;;;;5053869;28;20075;-47
2022/04/13 03:58:03;;;;;;;13.52;9.43;;;7.20;99.90;;;;;;5051841;28;20464;-50
2022/04/13 04:00:29;;;;;;;13.82;9.75;;;7.10;99.90;;;;;;5052012;28;20041;-48
2022/04/13 04:02:55;;;;;;;13.98;10.32;;;6.60;99.90;;;;;;5052563;28;20139;-47
2022/04/13 04:05:22;;;;;;;15.88;10.63;;;6.50;99.90;;;;;;5018601;28;20049;-48
2022/04/13 04:07:49;;;;;;;16.98;9.15;;;6.30;99.90;;;;;;5052155;28;20083;-49
2022/04/13 04:10:15;;;;;;;15.73;9.30;;;6.30;99.90;;;;;;5053912;28;20473;-50
2022/04/13 04:12:41;;;;;;;17.65;10.25;;;6.10;99.90;;;;;;5053752;28;20044;-48
2022/04/13 04:15:09;;;;;;;15.00;10.65;;;6.00;99.90;;;;;;5054071;28;20037;-49
2022/04/13 04:17:35;;;;;;;13.40;10.80;;;6.20;99.90;;;;;;5053715;28;20025;-49
2022/04/13 04:20:02;;;;;;;18.05;11.00;;;6.20;99.90;;;;;;5052081;28;20037;-51
2022/04/13 04:22:28;;;;;;;14.40;10.93;;;6.30;99.90;;;;;;5053872;28;20055;-45
2022/04/13 04:24:54;;;;;;;16.75;10.80;;;6.30;99.90;;;;;;5068648;28;20048;-52
2022/04/13 04:27:20;;;;;;;15.77;9.82;;;6.30;99.90;;;;;;5068623;28;20045;-46
2022/04/13 04:29:46;;;;;;;12.77;9.57;;;6.30;99.90;;;;;;5051364;28;20051;-50
2022/04/13 04:32:12;;;;;;;16.65;8.45;;;6.30;99.90;;;;;;5053742;28;20033;-48
2022/04/13 04:34:38;;;;;;;14.00;9.80;;;6.30;99.90;;;;;;5053532;28;20460;-47
2022/04/13 04:37:04;;;;;;;15.50;9.75;;;6.40;99.90;;;;;;5049770;28;20049;-46
2022/04/13 04:39:30;;;;;;;12.20;9.27;;;6.50;99.90;;;;;;5053504;28;20036;-46
2022/04/13 04:41:56;;;;;;;11.82;8.93;;;6.60;99.90;;;;;;5049579;28;20553;-49
2022/04/13 04:44:21;;;;;;;13.95;9.65;;;6.60;99.90;;;;;;5068248;28;20101;-50
2022/04/13 04:46:47;;;;;;;15.73;9.90;;;6.60;99.90;;;;;;5039583;28;20420;-46
2022/04/13 04:49:14;;;;;;;11.38;8.85;;;6.50;99.90;;;;;;5031910;28;20064;-48
2022/04/13 04:51:40;;;;;;;15.05;10.23;;;6.60;99.90;;;;;;5052077;28;20052;-47
2022/04/13 04:54:06;;;;;;;14.25;9.65;;;6.60;99.90;;;;;;5084777;28;20507;-46
2022/04/13 04:56:31;;;;;;;15.70;9.45;;;6.60;99.90;;;;;;5056861;28;20086;-46
2022/04/13 04:58:58;;;;;;;14.18;11.02;;;6.70;99.90;;;;;;5089039;28;20068;-47
2022/04/13 05:01:24;;;;;;;15.90;11.77;;;7.40;99.90;;;;;;5055865;28;20040;-48
2022/04/13 05:03:50;;;;;;;14.82;11.65;;;6.90;99.90;;;;;;5055480;28;20041;-51
2022/04/13 05:06:21;;;;;;;16.00;11.05;;;7.10;99.90;;;;;;5055432;28;20045;-51
2022/04/13 05:08:48;;;;;;;20.45;12.07;;;7.30;99.90;;;;;;5075052;28;20496;-49
2022/04/13 05:11:14;;;;;;;16.17;10.85;;;7.50;99.90;;;;;;5075252;28;20044;-47
2022/04/13 05:13:40;;;;;;;15.43;10.80;;;7.70;99.90;;;;;;5041919;28;20048;-50
2022/04/13 05:16:06;;;;;;;16.60;10.50;;;8.00;99.90;;;;;;5075033;28;20036;-50
2022/04/13 05:18:33;;;;;;;19.02;12.60;;;8.20;99.90;;;;;;5041334;28;20139;-48
2022/04/13 05:20:59;;;;;;;21.58;12.43;;;;;;;;;;5074895;28;20104;-54
2022/04/13 05:23:24;;;;;;;18.23;12.63;;;8.50;99.90;;;;;;5074783;28;20075;-48
2022/04/13 05:25:50;;;;;;;27.48;15.50;;;8.80;99.90;;;;;;5082901;28;20456;-48
2022/04/13 05:28:16;;;;;;;18.92;12.90;;;8.80;99.90;;;;;;5027927;28;20076;-45
2022/04/13 05:30:42;;;;;;;17.30;12.40;;;8.90;99.90;;;;;;5027761;28;20074;-55
2022/04/13 05:33:08;;;;;;;19.63;11.63;;;;;;;;;;5094768;28;20131;-49
2022/04/13 05:35:34;;;;;;;20.20;13.23;;;9.40;99.90;;;;;;5060736;28;20129;-53
2022/04/13 05:38:02;;;;;;;19.85;13.13;;;9.50;99.90;;;;;;5094509;28;20044;-55
2022/04/13 05:40:28;;;;;;;19.20;12.38;;;9.70;99.90;;;;;;5079950;28;20048;-50
2022/04/13 05:42:54;;;;;;;21.05;13.68;;;9.90;99.90;;;;;;5074468;28;20044;-54
2022/04/13 05:45:20;;;;;;;19.00;12.88;;;9.90;99.90;;;;;;5057856;28;20538;-55
2022/04/13 05:47:46;;;;;;;20.15;13.82;;;10.00;99.90;;;;;;5076291;28;20072;-52
2022/04/13 05:50:13;;;;;;;17.85;12.35;;;9.90;99.90;;;;;;5057691;28;20076;-56
2022/04/13 05:52:40;;;;;;;18.63;14.38;;;10.10;99.90;;;;;;5074238;28;20040;-50
2022/04/13 05:55:07;;;;;;;20.30;12.68;;;10.20;99.90;;;;;;5046376;28;20037;-52
2022/04/13 05:57:33;;;;;;;20.67;12.48;;;10.30;99.90;;;;;;5054149;28;20560;-53
2022/04/13 05:59:59;;;;;;;21.02;12.68;;;10.50;99.90;;;;;;5055907;28;20484;-55
2022/04/13 06:02:25;;;;;;;15.63;10.93;;;10.30;99.90;;;;;;5054186;28;21452;-51
2022/04/13 06:04:51;;;;;;;18.83;10.63;;;10.40;99.90;;;;;;5055540;28;20032;-56
2022/04/13 06:07:17;;;;;;;19.40;11.35;;;10.40;99.90;;;;;;5054195;28;20043;-57
2022/04/13 06:09:43;;;;;;;17.73;11.57;;;10.60;99.90;;;;;;5055047;28;20040;-57
2022/04/13 06:12:09;;;;;;;17.67;12.25;;;10.70;99.90;;;;;;5055339;28;20472;-47
2022/04/13 06:14:35;;;;;;;15.68;10.88;;;10.90;99.90;;;;;;5055247;28;20025;-53
2022/04/13 06:17:00;;;;;;;15.15;10.93;;;10.90;99.90;;;;;;5055255;28;20036;-54
2022/04/13 06:19:26;;;;;;;18.85;10.30;;;11.10;99.90;;;;;;5055178;28;20040;-47
2022/04/13 06:21:52;;;;;;;15.45;10.88;;;11.30;99.90;;;;;;5054937;28;20036;-55
2022/04/13 06:24:18;;;;;;;12.32;9.45;;;;;;;;;;5054901;28;20025;-50
2022/04/13 06:26:44;;;;;;;14.05;9.27;;;11.80;99.90;;;;;;5054934;28;20475;-54
2022/04/13 06:29:10;;;;;;;13.68;8.82;;;11.70;99.90;;;;;;5052851;28;20080;-55
2022/04/13 06:31:35;;;;;;;12.63;8.52;;;11.80;99.90;;;;;;5036558;28;20041;-51
2022/04/13 06:34:02;;;;;;;12.05;8.98;;;11.80;99.90;;;;;;5036222;28;20504;-55
2022/04/13 06:36:28;;;;;;;15.38;9.52;;;;;;;;;;5054704;28;20106;-59
2022/04/13 06:38:54;;;;;;;13.73;9.50;;;12.40;99.90;;;;;;5054960;28;20048;-51
2022/04/13 06:41:21;;;;;;;16.33;8.68;;;12.40;99.90;;;;;;5054964;28;20499;-53
2022/04/13 06:43:47;;;;;;;15.00;9.02;;;12.50;99.90;;;;;;5055309;28;20033;-48
2022/04/13 06:46:13;;;;;;;9.93;7.40;;;12.60;99.90;;;;;;5086750;28;20111;-56
2022/04/13 06:48:39;;;;;;;10.68;8.02;;;12.70;99.90;;;;;;5053004;28;20073;-56
2022/04/13 06:51:05;;;;;;;14.05;8.68;;;12.70;99.90;;;;;;5052172;28;20068;-55
2022/04/13 06:53:31;;;;;;;10.55;7.05;;;12.80;99.90;;;;;;5052178;28;20087;-55
2022/04/13 06:55:57;;;;;;;11.55;5.90;;;12.80;99.90;;;;;;5052701;28;20037;-52
2022/04/13 06:58:23;;;;;;;14.30;7.60;;;12.70;99.90;;;;;;5052805;28;20128;-54
2022/04/13 07:00:49;;;;;;;9.88;7.25;;;12.90;99.90;;;;;;5036090;28;20037;-55
2022/04/13 07:03:15;;;;;;;12.43;8.40;;;;;;;;;;5034985;28;20135;-49
2022/04/13 07:05:41;;;;;;;9.75;6.68;;;13.20;99.90;;;;;;5052643;28;20051;-55
2022/04/13 07:08:07;;;;;;;10.48;7.47;;;;;;;;;;5050034;28;20045;-47
2022/04/13 07:10:34;;;;;;;10.25;7.30;;;13.40;99.90;;;;;;5052236;28;20094;-56
2022/04/13 07:13:00;;;;;;;9.55;6.70;;;13.60;99.90;;;;;;5051085;28;20037;-49
2022/04/13 07:15:27;;;;;;;8.73;6.25;;;13.60;99.90;;;;;;5052117;28;20127;-51
2022/04/13 07:17:53;;;;;;;8.60;5.80;;;13.60;99.90;;;;;;5052031;28;20616;-50
2022/04/13 07:20:19;;;;;;;8.40;5.53;;;13.60;99.90;;;;;;5051882;28;20041;-48
2022/04/13 07:22:50;;;;;;;8.40;4.78;;;13.60;99.90;;;;;;5035364;28;20128;-49
2022/04/13 07:25:17;;;;;;;7.57;5.60;;;13.80;99.80;;;;;;5052214;28;20431;-50
2022/04/13 07:27:43;;;;;;;5.95;4.22;;;14.10;99.90;;;;;;5053698;28;20485;-50
2022/04/13 07:30:10;;;;;;;5.65;4.55;;;14.20;99.50;;;;;;5054257;28;20031;-50
2022/04/13 07:32:36;;;;;;;8.10;4.93;;;14.20;97.30;;;;;;5068450;28;20051;-48
2022/04/13 07:35:05;;;;;;;9.23;4.80;;;14.40;97.40;;;;;;5054001;28;20123;-49
2022/04/13 07:37:32;;;;;;;9.32;4.85;;;14.40;94.90;;;;;;5051944;28;20691;-49
2022/04/13 07:39:58;;;;;;;6.65;4.80;;;14.60;97.10;;;;;;5052043;28;20033;-50
2022/04/13 07:42:26;;;;;;;6.30;4.22;;;14.60;96.50;;;;;;5053987;28;20029;-49
2022/04/13 07:44:53;;;;;;;8.52;4.40;;;14.70;97.00;;;;;;5054142;28;20176;-48
2022/04/13 07:47:22;;;;;;;8.93;5.53;;;14.80;95.20;;;;;;5053948;28;20138;-51
2022/04/13 07:49:49;;;;;;;7.97;5.75;;;14.90;96.40;;;;;;5051815;28;20187;-50
2022/04/13 07:52:16;;;;;;;7.85;5.13;;;;;;;;;;5054021;28;20060;-48
2022/04/13 07:54:44;;;;;;;7.57;4.85;;;15.30;94.70;;;;;;5049378;28;20033;-52
2022/04/13 07:57:10;;;;;;;8.20;4.60;;;15.20;94.20;;;;;;5053273;28;20139;-51
2022/04/13 07:59:36;;;;;;;9.30;5.60;;;15.30;94.40;;;;;;5051119;28;20528;-56
2022/04/13 08:02:02;;;;;;;7.30;4.88;;;15.20;93.60;;;;;;5053495;28;20477;-51
2022/04/13 08:04:28;;;;;;;9.23;5.03;;;15.40;93.70;;;;;;5078499;28;20029;-52
2022/04/13 08:06:54;;;;;;;10.55;5.35;;;15.70;93.60;;;;;;5052670;28;20028;-53
2022/04/13 08:09:20;;;;;;;9.10;4.55;;;16.10;92.40;;;;;;5050255;28;20052;-51
2022/04/13 08:11:46;;;;;;;6.45;4.47;;;;;;;;;;5081664;28;20044;-48
2022/04/13 08:14:12;;;;;;;7.65;4.55;;;16.50;99.90;;;;;;5068029;28;20040;-51
2022/04/13 08:16:38;;;;;;;8.10;3.03;;;;;;;;;;5054308;28;20044;-49
2022/04/13 08:19:05;;;;;;;13.10;3.15;;;16.80;87.50;;;;;;5051076;28;20037;-52
2022/04/13 08:21:33;;;;;;;4.20;2.42;;;16.70;87.00;;;;;;5066686;28;20037;-49
2022/04/13 08:23:59;;;;;;;5.05;2.80;;;16.80;85.90;;;;;;5052642;28;20099;-49
2022/04/13 08:26:25;;;;;;;4.63;2.92;;;;;;;;;;5075095;28;20064;-50
2022/04/13 08:28:50;;;;;;;4.18;2.65;;;17.20;92.80;;;;;;5052092;28;20087;-50
2022/04/13 08:31:18;;;;;;;3.58;2.40;;;;;;;;;;5051935;28;20449;-50
2022/04/13 08:33:44;;;;;;;3.55;2.92;;;17.20;81.50;;;;;;5052775;28;20031;-49
2022/04/13 08:36:09;;;;;;;5.22;2.75;;;17.50;84.70;;;;;;5052797;28;20124;-49
2022/04/13 08:38:36;;;;;;;3.47;2.70;;;17.70;81.90;;;;;;5084681;28;20091;-49
2022/04/13 08:41:07;;;;;;;4.70;2.85;;;;;;;;;;5053206;28;20457;-50
2022/04/13 08:43:43;;;;;;;6.40;2.60;;;;;;;;;;5052004;28;20370;-49
2022/04/13 08:46:13;;;;;;;3.42;2.67;;;18.20;92.60;;;;;;5052046;28;20146;-50
2022/04/13 08:48:42;;;;;;;4.95;2.90;;;18.60;78.70;;;;;;5041381;28;20038;-50
2022/04/13 08:51:13;;;;;;;4.90;3.50;;;18.60;78.80;;;;;;5041276;28;20029;-49
2022/04/13 08:53:43;;;;;;;3.33;2.45;;;18.50;80.60;;;;;;5065432;28;20036;-50
2022/04/13 08:56:14;;;;;;;4.60;3.00;;;18.80;78.30;;;;;;5048879;28;20127;-49
2022/04/13 08:59:20;;;;;;;8.38;3.90;;;19.20;96.20;;;;;;5048779;28;20041;-46
2022/04/13 09:02:08;;;;;;;6.05;3.25;;;19.10;96.10;;;;;;5039324;28;20068;-47
2022/04/13 09:04:42;;;;;;;4.38;2.75;;;19.20;95.90;;;;;;5046151;28;20118;-48
2022/04/13 09:07:11;;;;;;;6.07;2.70;;;18.90;75.00;;;;;;5048898;28;20044;-47
2022/04/13 09:09:49;;;;;;;3.72;2.60;;;19.10;75.70;;;;;;5049423;28;20037;-47
2022/04/13 09:12:18;;;;;;;5.45;3.30;;;19.40;74.00;;;;;;5049229;28;20043;-48
2022/04/13 09:14:45;;;;;;;4.88;3.58;;;19.30;75.70;;;;;;5049261;28;20087;-48
2022/04/13 09:17:11;;;;;;;5.53;3.53;;;19.60;92.90;;;;;;5049402;28;20021;-48
2022/04/13 09:19:38;;;;;;;5.85;4.00;;;19.70;78.30;;;;;;5049193;28;20519;-49
2022/04/13 09:22:09;;;;;;;8.77;4.78;;;19.90;77.10;;;;;;5049224;28;20036;-48
2022/04/13 09:24:37;;;;;;;6.00;3.88;;;20.40;75.90;;;;;;5038954;28;20032;-48
2022/04/13 09:27:04;;;;;;;8.38;4.22;;;20.30;74.10;;;;;;5047746;28;20048;-48
2022/04/13 09:29:30;;;;;;;6.20;3.50;;;20.50;74.00;;;;;;5044459;28;20060;-49
2022/04/13 09:31:56;;;;;;;4.00;3.10;;;20.70;73.00;;;;;;5043163;28;20763;-48
2022/04/13 09:34:21;;;;;;;5.10;3.08;;;21.10;74.50;;;;;;5051241;28;20484;-47
2022/04/13 09:36:48;;;;;;;6.18;3.13;;;21.20;72.60;;;;;;5048324;28;20662;-47
2022/04/13 09:39:16;;;;;;;6.05;3.33;;;21.70;72.00;;;;;;5023783;28;20033;-48
2022/04/13 09:41:41;;;;;;;6.18;3.55;;;21.70;71.40;;;;;;5031573;28;20061;-48
2022/04/13 09:44:15;;;;;;;4.47;3.10;;;22.10;71.00;;;;;;5050773;28;20037;-49
2022/04/13 09:46:41;;;;;;;6.53;3.80;;;21.80;72.80;;;;;;5053811;28;20029;-47
2022/04/13 09:49:11;;;;;;;6.05;3.42;;;;;;;;;;5052572;28;20091;-48
2022/04/13 09:51:42;;;;;;;6.93;4.30;;;;;;;;;;5054931;28;20051;-47
2022/04/13 09:54:09;;;;;;;6.75;3.65;;;;;;;;;;5054985;28;20036;-47
2022/04/13 09:56:37;;;;;;;5.40;3.60;;;22.70;77.60;;;;;;5054942;28;20484;-48
2022/04/13 09:59:06;;;;;;;6.25;3.80;;;22.70;69.20;;;;;;5054914;28;20431;-47
2022/04/13 10:01:34;;;;;;;6.13;4.25;;;22.60;70.90;;;;;;5054134;28;20036;-48
2022/04/13 10:04:00;;;;;;;5.00;3.80;;;22.30;70.70;;;;;;5054823;28;20033;-48
2022/04/13 10:06:35;;;;;;;5.93;4.05;;;22.20;71.10;;;;;;5054798;28;20033;-48
2022/04/13 10:09:06;;;;;;;7.85;4.30;;;22.10;71.30;;;;;;5055476;28;20106;-47
2022/04/13 10:11:32;;;;;;;6.93;4.30;;;22.60;71.20;;;;;;5055310;28;20428;-48
2022/04/13 10:14:07;;;;;;;7.50;4.97;;;22.80;68.10;;;;;;5055826;28;20068;-47
2022/04/13 10:16:34;;;;;;;6.03;4.55;;;22.40;67.30;;;;;;5055736;28;20033;-47
2022/04/13 10:19:04;;;;;;;5.18;4.03;;;22.20;68.30;;;;;;5055654;28;20063;-48
2022/04/13 10:21:48;;;;;;;6.90;4.22;;;22.20;68.80;;;;;;5055778;28;20072;-48
2022/04/13 10:24:25;;;;;;;8.10;4.60;;;22.60;67.50;;;;;;5055423;28;20024;-48
2022/04/13 10:27:08;;;;;;;6.13;4.40;;;22.70;86.20;;;;;;5055492;28;20033;-47
2022/04/13 10:29:38;;;;;;;7.05;4.93;;;;;;;;;;5053658;28;20049;-48
2022/04/13 10:32:15;;;;;;;7.50;5.18;;;23.20;70.70;;;;;;5055205;28;20433;-50
2022/04/13 10:34:42;;;;;;;8.35;4.85;;;;;;;;;;5050062;28;20025;-48
2022/04/13 10:37:09;;;;;;;7.28;4.20;;;;;;;;;;5055262;28;20064;-48
2022/04/13 10:39:36;;;;;;;8.63;5.03;;;22.70;81.40;;;;;;5055433;28;20021;-47
2022/04/13 10:42:03;;;;;;;6.47;4.25;;;22.90;69.20;;;;;;5053591;28;20095;-48
2022/04/13 10:44:33;;;;;;;9.55;6.45;;;;;;;;;;5036484;28;20071;-47
2022/04/13 10:47:05;;;;;;;8.20;5.43;;;23.50;66.20;;;;;;5057935;28;20060;-47
2022/04/13 10:49:31;;;;;;;;;;;;;;;;;;5055869;28;20037;-47
2022/04/13 10:52:07;;;;;;;6.43;4.68;;;24.30;67.80;;;;;;5053110;28;19911;-48
2022/04/13 10:54:37;;;;;;;8.30;5.53;;;24.40;65.70;;;;;;5054608;28;20033;-47
2022/04/13 10:57:06;;;;;;;10.10;5.75;;;24.10;68.50;;;;;;5035432;28;20103;-48
2022/04/13 10:59:50;;;;;;;13.23;7.13;;;24.10;67.30;;;;;;5035479;28;20083;-48
2022/04/13 11:02:28;;;;;;;9.80;5.57;;;24.50;82.30;;;;;;5035088;28;20056;-50
2022/04/13 11:04:56;;;;;;;9.48;5.60;;;24.50;67.00;;;;;;5033287;28;20485;-48
2022/04/13 11:07:24;;;;;;;9.45;5.88;;;24.40;68.90;;;;;;5035011;28;20037;-47
2022/04/13 11:09:55;;;;;;;7.75;4.85;;;24.70;88.00;;;;;;5035063;28;20037;-49
2022/04/13 11:12:23;;;;;;;7.93;4.97;;;24.70;76.40;;;;;;5034963;28;20064;-48
2022/04/13 11:14:58;;;;;;;8.20;5.13;;;24.90;91.30;;;;;;5039459;28;20033;-47
2022/04/13 11:17:28;;;;;;;6.90;5.30;;;23.90;87.00;;;;;;5034335;28;20078;-47
2022/04/13 11:20:28;;;;;;;8.77;5.00;;;24.00;91.10;;;;;;5053945;28;20033;-50
2022/04/13 11:23:12;;;;;;;9.23;5.10;;;23.80;65.30;;;;;;5051911;28;20519;-47
2022/04/13 11:25:51;;;;;;;7.57;4.72;;;24.40;65.40;;;;;;5052151;28;20082;-47
2022/04/13 11:28:28;;;;;;;8.80;5.20;;;24.10;63.90;;;;;;5048450;28;20068;-48
2022/04/13 11:31:20;;;;;;;8.02;4.60;;;23.80;64.50;;;;;;5029865;28;20075;-47
2022/04/13 11:33:56;;;;;;;8.43;4.88;;;24.40;65.30;;;;;;5051129;28;20221;-48
2022/04/13 11:36:27;;;;;;;184.48;164.80;;;24.10;66.50;;;;;;5051781;28;20435;-48
2022/04/13 11:38:53;;;;;;;7.38;4.43;;;24.30;64.90;;;;;;5051566;28;20112;-48
2022/04/13 11:41:21;;;;;;;9.60;4.50;;;24.10;64.60;;;;;;5009278;28;20033;-48
2022/04/13 11:43:47;;;;;;;7.03;4.55;;;23.90;65.70;;;;;;5046195;28;20032;-47
2022/04/13 11:46:39;;;;;;;7.82;4.97;;;24.00;65.80;;;;;;5025700;28;20032;-48
2022/04/13 11:49:10;;;;;;;;;;;23.80;64.70;;;;;;5026141;28;20037;-48
2022/04/13 11:51:36;;;;;;;7.43;4.55;;;24.50;82.80;;;;;;5024695;28;19966;-48
2022/04/13 11:54:20;;;;;;;10.35;4.60;;;24.30;85.70;;;;;;5048830;28;20064;-48
2022/04/13 11:56:51;;;;;;;7.90;4.03;;;24.50;62.40;;;;;;5051717;28;20032;-48
2022/04/13 11:59:37;;;;;;;6.87;4.57;;;23.80;80.50;;;;;;5021468;28;20032;-47
2022/04/13 12:02:07;;;;;;;5.90;4.55;;;24.30;78.90;;;;;;5050927;28;20029;-47
2022/04/13 12:04:34;;;;;;;9.68;5.00;;;24.20;87.80;;;;;;5050281;28;20033;-47
2022/04/13 12:07:01;;;;;;;9.15;5.47;;;24.00;87.30;;;;;;5052999;28;20166;-48
2022/04/13 12:09:28;;;;;;;6.22;4.35;;;24.30;88.90;;;;;;5049929;28;20017;-47
2022/04/13 12:11:55;;;;;;;7.13;4.70;;;24.60;64.60;;;;;;5053035;28;20028;-48
2022/04/13 12:14:38;;;;;;;6.30;4.93;;;;;;;;;;5042725;28;20128;-49
2022/04/13 12:17:05;;;;;;;7.35;5.03;;;;;;;;;;5053247;28;20111;-47
2022/04/13 12:19:42;;;;;;;7.78;5.85;;;25.30;93.00;;;;;;5052592;28;20403;-47
2022/04/13 12:22:18;;;;;;;9.18;4.70;;;25.20;87.50;;;;;;5053550;28;20033;-47
2022/04/13 12:25:03;;;;;;;9.07;4.78;;;24.70;64.40;;;;;;5053378;28;20044;-46
2022/04/13 12:27:29;;;;;;;5.95;4.13;;;24.70;61.90;;;;;;5050982;28;20032;-48
2022/04/13 12:30:18;;;;;;;5.45;4.20;;;24.30;61.10;;;;;;5053007;28;20147;-49
2022/04/13 12:32:47;;;;;;;9.25;4.25;;;24.40;61.80;;;;;;5000947;28;20056;-48
2022/04/13 12:35:14;;;;;;;7.00;4.03;;;24.20;62.10;;;;;;5052751;28;20052;-47
2022/04/13 12:37:53;;;;;;;6.75;4.03;;;24.00;63.00;;;;;;5053150;28;20033;-50
2022/04/13 12:40:26;;;;;;;7.28;3.55;;;24.10;63.70;;;;;;5053521;28;20094;-48
2022/04/13 12:42:52;;;;;;;5.00;3.55;;;24.40;62.00;;;;;;5051168;28;20370;-47
2022/04/13 12:45:19;;;;;;;6.90;3.67;;;24.40;62.40;;;;;;5034337;28;20186;-47
2022/04/13 12:47:49;;;;;;;6.38;3.60;;;24.80;61.40;;;;;;5050715;28;20037;-47
2022/04/13 12:50:15;;;;;;;5.20;3.60;;;24.50;64.10;;;;;;5053140;28;20081;-49
2022/04/13 12:52:44;;;;;;;4.80;3.08;;;24.20;60.20;;;;;;5052986;28;20159;-48
2022/04/13 12:55:10;;;;;;;5.78;3.28;;;23.90;60.20;;;;;;5034936;28;20032;-48